PWSweather.com
Personal Weather Stations
Station Observations
WODONGA
Wodonga, WodongaAU 3690

WodongaWodongaAU 3690

Lat: -36.121, Lon: 146.87

Elevation: 541

Station Type: Weather Station

http://www.wodongaweather.net

High Low Average
Temperature 68.2°F20.1°F 37.6°F3.1°F 51.0°F10.6°F
Dew Point 49.1°F9.5°F 34.4°F1.3°F 41.1°F5.1°F
Winds 7.7 mph E12.4 mph E Calm Calm 2.1 mph 3.4 mph
Wind Gusts 12.1 mph19.5 mph -- 3.5 mph5.6 mph
Humidity 90% 43% 71%
Pressure 30.43 in1030.50 in 30.31 in1026.40 in -
Precipitation 0.00 in0.00 in - -
Hour Temp Dew Point Humidity Winds Wind Gusts Pressure Precip Precip Rate Daily Precip Total
12:00 AM 43.9°F6.6°C 39.4°F4.1°C 84% 1.4 mph SSE2.3 kmh SSE 2.2 mph3.5 kmh 30.31 in1026.4 mb 0.00 in0.0 mm 0.00 in/hr0.0 mm/hr 0.00 in0.0 mm
12:05 AM 44.1°F6.7°C 39.5°F4.2°C 84% 2.1 mph S3.4 kmh S 2.2 mph3.5 kmh 30.31 in1026.4 mb 0.00 in0.0 mm 0.00 in/hr0.0 mm/hr 0.00 in0.0 mm
12:10 AM 44.2°F6.8°C 39.7°F4.3°C 84% 2.2 mph S3.5 kmh S 2.2 mph3.5 kmh 30.31 in1026.4 mb 0.00 in0.0 mm 0.00 in/hr0.0 mm/hr 0.00 in0.0 mm
12:15 AM 44.2°F6.8°C 39.7°F4.3°C 84% 2.5 mph S4.0 kmh S 3.1 mph5.0 kmh 30.31 in1026.4 mb 0.00 in0.0 mm 0.00 in/hr0.0 mm/hr 0.00 in0.0 mm
12:20 AM 44.1°F6.7°C 39.5°F4.2°C 84% 2.3 mph S3.7 kmh S 3.1 mph5.0 kmh 30.31 in1026.4 mb 0.00 in0.0 mm 0.00 in/hr0.0 mm/hr 0.00 in0.0 mm
12:25 AM 43.9°F6.6°C 39.4°F4.1°C 84% 1.4 mph S2.3 kmh S 3.1 mph5.0 kmh 30.31 in1026.4 mb 0.00 in0.0 mm 0.00 in/hr0.0 mm/hr 0.00 in0.0 mm
12:30 AM 43.7°F6.5°C 39.5°F4.2°C 85% 0.7 mph S1.1 kmh S 1.6 mph2.6 kmh 30.31 in1026.4 mb 0.00 in0.0 mm 0.00 in/hr0.0 mm/hr 0.00 in0.0 mm
12:35 AM 43.5°F6.4°C 39.0°F3.9°C 84% 0.8 mph SSW1.3 kmh SSW 1.6 mph2.6 kmh 30.31 in1026.4 mb 0.00 in0.0 mm 0.00 in/hr0.0 mm/hr 0.00 in0.0 mm
12:40 AM 43.5°F6.4°C 39.0°F3.9°C 84% 1.1 mph SSW1.8 kmh SSW 1.6 mph2.6 kmh 30.31 in1026.4 mb 0.00 in0.0 mm 0.00 in/hr0.0 mm/hr 0.00 in0.0 mm
12:45 AM 43.2°F6.2°C 38.7°F3.7°C 84% 0.8 mph SSW1.3 kmh SSW 1.6 mph2.6 kmh 30.32 in1026.8 mb 0.00 in0.0 mm 0.00 in/hr0.0 mm/hr 0.00 in0.0 mm
12:50 AM 43.2°F6.2°C 38.7°F3.7°C 84% 0.8 mph S1.3 kmh S 1.6 mph2.6 kmh 30.31 in1026.4 mb 0.00 in0.0 mm 0.00 in/hr0.0 mm/hr 0.00 in0.0 mm
12:55 AM 42.8°F6.0°C 38.3°F3.5°C 84% 1.2 mph S1.9 kmh S 1.6 mph2.6 kmh 30.32 in1026.8 mb 0.00 in0.0 mm 0.00 in/hr0.0 mm/hr 0.00 in0.0 mm
01:00 AM 42.4°F5.8°C 38.0°F3.3°C 84% 1.4 mph S2.3 kmh S 2.2 mph3.5 kmh 30.31 in1026.4 mb 0.00 in0.0 mm 0.00 in/hr0.0 mm/hr 0.00 in0.0 mm
01:05 AM 42.3°F5.7°C 38.1°F3.4°C 85% 1.3 mph S2.1 kmh S 2.2 mph3.5 kmh 30.32 in1026.8 mb 0.00 in0.0 mm 0.00 in/hr0.0 mm/hr 0.00 in0.0 mm
01:10 AM 42.3°F5.7°C 38.1°F3.4°C 85% 1.0 mph S1.6 kmh S 2.2 mph3.5 kmh 30.31 in1026.4 mb 0.00 in0.0 mm 0.00 in/hr0.0 mm/hr 0.00 in0.0 mm
01:15 AM 42.1°F5.6°C 37.9°F3.3°C 85% 0.8 mph S1.3 kmh S 1.6 mph2.6 kmh 30.32 in1026.8 mb 0.00 in0.0 mm 0.00 in/hr0.0 mm/hr 0.00 in0.0 mm
01:20 AM 42.1°F5.6°C 37.9°F3.3°C 85% 0.9 mph S1.4 kmh S 1.6 mph2.6 kmh 30.32 in1026.8 mb 0.00 in0.0 mm 0.00 in/hr0.0 mm/hr 0.00 in0.0 mm
01:25 AM 41.9°F5.5°C 37.7°F3.2°C 85% 0.8 mph SSW1.3 kmh SSW 1.6 mph2.6 kmh 30.32 in1026.8 mb 0.00 in0.0 mm 0.00 in/hr0.0 mm/hr 0.00 in0.0 mm
01:30 AM 41.7°F5.4°C 37.6°F3.1°C 85% 0.7 mph SSW1.1 kmh SSW 1.6 mph2.6 kmh 30.32 in1026.8 mb 0.00 in0.0 mm 0.00 in/hr0.0 mm/hr 0.00 in0.0 mm
01:35 AM 41.5°F5.3°C 37.4°F3.0°C 85% 0.5 mph SSW0.8 kmh SSW 1.6 mph2.6 kmh 30.32 in1026.8 mb 0.00 in0.0 mm 0.00 in/hr0.0 mm/hr 0.00 in0.0 mm
01:40 AM 41.5°F5.3°C 37.4°F3.0°C 85% 0.7 mph S1.1 kmh S 1.6 mph2.6 kmh 30.32 in1026.8 mb 0.00 in0.0 mm 0.00 in/hr0.0 mm/hr 0.00 in0.0 mm
01:45 AM 41.2°F5.1°C 37.0°F2.8°C 85% 1.1 mph S1.8 kmh S 1.6 mph2.6 kmh 30.32 in1026.8 mb 0.00 in0.0 mm 0.00 in/hr0.0 mm/hr 0.00 in0.0 mm
01:50 AM 41.0°F5.0°C 36.8°F2.7°C 85% 1.4 mph S2.3 kmh S 2.2 mph3.5 kmh 30.32 in1026.8 mb 0.00 in0.0 mm 0.00 in/hr0.0 mm/hr 0.00 in0.0 mm
01:55 AM 41.0°F5.0°C 36.8°F2.7°C 85% 1.2 mph S1.9 kmh S 2.2 mph3.5 kmh 30.32 in1026.8 mb 0.00 in0.0 mm 0.00 in/hr0.0 mm/hr 0.00 in0.0 mm
02:00 AM 40.8°F4.9°C 37.0°F2.8°C 86% 1.1 mph S1.8 kmh S 2.2 mph3.5 kmh 30.32 in1026.8 mb 0.00 in0.0 mm 0.00 in/hr0.0 mm/hr 0.00 in0.0 mm
02:05 AM 40.8°F4.9°C 37.0°F2.8°C 86% 1.4 mph S2.3 kmh S 1.6 mph2.6 kmh 30.32 in1026.8 mb 0.00 in0.0 mm 0.00 in/hr0.0 mm/hr 0.00 in0.0 mm
02:10 AM 40.8°F4.9°C 37.0°F2.8°C 86% 1.5 mph S2.4 kmh S 2.2 mph3.5 kmh 30.32 in1026.8 mb 0.00 in0.0 mm 0.00 in/hr0.0 mm/hr 0.00 in0.0 mm
02:15 AM 40.8°F4.9°C 37.0°F2.8°C 86% 1.1 mph SSE1.8 kmh SSE 2.2 mph3.5 kmh 30.32 in1026.8 mb 0.00 in0.0 mm 0.00 in/hr0.0 mm/hr 0.00 in0.0 mm
02:20 AM 40.8°F4.9°C 36.7°F2.6°C 85% 0.5 mph SE0.8 kmh SE 1.6 mph2.6 kmh 30.32 in1026.8 mb 0.00 in0.0 mm 0.00 in/hr0.0 mm/hr 0.00 in0.0 mm
02:25 AM 40.6°F4.8°C 36.8°F2.7°C 86% 0.2 mph SE0.3 kmh SE 1.6 mph2.6 kmh 30.32 in1026.8 mb 0.00 in0.0 mm 0.00 in/hr0.0 mm/hr 0.00 in0.0 mm
02:30 AM 40.5°F4.7°C 36.6°F2.6°C 86% Calm Calm -- 30.32 in1026.8 mb 0.00 in0.0 mm 0.00 in/hr0.0 mm/hr 0.00 in0.0 mm
02:35 AM 40.3°F4.6°C 36.4°F2.4°C 86% 0.2 mph SW0.3 kmh SW 0.7 mph1.1 kmh 30.32 in1026.8 mb 0.00 in0.0 mm 0.00 in/hr0.0 mm/hr 0.00 in0.0 mm
02:40 AM 40.3°F4.6°C 36.4°F2.4°C 86% 0.4 mph SW0.6 kmh SW 0.7 mph1.1 kmh 30.32 in1026.8 mb 0.00 in0.0 mm 0.00 in/hr0.0 mm/hr 0.00 in0.0 mm
02:45 AM 40.3°F4.6°C 36.4°F2.4°C 86% 0.2 mph SW0.3 kmh SW 0.7 mph1.1 kmh 30.33 in1027.1 mb 0.00 in0.0 mm 0.00 in/hr0.0 mm/hr 0.00 in0.0 mm
02:50 AM 40.3°F4.6°C 36.4°F2.4°C 86% Calm Calm -- 30.33 in1027.1 mb 0.00 in0.0 mm 0.00 in/hr0.0 mm/hr 0.00 in0.0 mm
02:55 AM 40.3°F4.6°C 36.4°F2.4°C 86% 0.2 mph SW0.3 kmh SW 0.7 mph1.1 kmh 30.33 in1027.1 mb 0.00 in0.0 mm 0.00 in/hr0.0 mm/hr 0.00 in0.0 mm
03:00 AM 39.9°F4.4°C 36.1°F2.3°C 86% 0.2 mph SW0.3 kmh SW 0.7 mph1.1 kmh 30.33 in1027.1 mb 0.00 in0.0 mm 0.00 in/hr0.0 mm/hr 0.00 in0.0 mm
03:05 AM 39.9°F4.4°C 36.1°F2.3°C 86% 0.3 mph SW0.5 kmh SW 1.6 mph2.6 kmh 30.33 in1027.1 mb 0.00 in0.0 mm 0.00 in/hr0.0 mm/hr 0.00 in0.0 mm
03:10 AM 39.9°F4.4°C 36.1°F2.3°C 86% 0.3 mph SW0.5 kmh SW 1.6 mph2.6 kmh 30.33 in1027.1 mb 0.00 in0.0 mm 0.00 in/hr0.0 mm/hr 0.00 in0.0 mm
03:15 AM 39.7°F4.3°C 36.2°F2.3°C 87% 0.5 mph SSW0.8 kmh SSW 1.6 mph2.6 kmh 30.33 in1027.1 mb 0.00 in0.0 mm 0.00 in/hr0.0 mm/hr 0.00 in0.0 mm
03:20 AM 39.6°F4.2°C 36.0°F2.2°C 87% 0.7 mph S1.1 kmh S 1.6 mph2.6 kmh 30.34 in1027.4 mb 0.00 in0.0 mm 0.00 in/hr0.0 mm/hr 0.00 in0.0 mm
03:25 AM 39.4°F4.1°C 35.8°F2.1°C 87% 0.6 mph N1.0 kmh N 1.6 mph2.6 kmh 30.33 in1027.1 mb 0.00 in0.0 mm 0.00 in/hr0.0 mm/hr 0.00 in0.0 mm
03:30 AM 39.4°F4.1°C 36.1°F2.3°C 88% 1.0 mph SW1.6 kmh SW 2.2 mph3.5 kmh 30.34 in1027.4 mb 0.00 in0.0 mm 0.00 in/hr0.0 mm/hr 0.00 in0.0 mm
03:35 AM 39.4°F4.1°C 36.1°F2.3°C 88% 1.4 mph WSW2.3 kmh WSW 3.1 mph5.0 kmh 30.34 in1027.4 mb 0.00 in0.0 mm 0.00 in/hr0.0 mm/hr 0.00 in0.0 mm
03:40 AM 39.7°F4.3°C 36.5°F2.5°C 88% 0.9 mph NW1.4 kmh NW 3.1 mph5.0 kmh 30.34 in1027.4 mb 0.00 in0.0 mm 0.00 in/hr0.0 mm/hr 0.00 in0.0 mm
03:45 AM 39.6°F4.2°C 36.3°F2.4°C 88% 0.2 mph NW0.3 kmh NW 0.7 mph1.1 kmh 30.35 in1027.8 mb 0.00 in0.0 mm 0.00 in/hr0.0 mm/hr 0.00 in0.0 mm
03:50 AM 39.6°F4.2°C 36.3°F2.4°C 88% 0.3 mph W0.5 kmh W 2.2 mph3.5 kmh 30.35 in1027.8 mb 0.00 in0.0 mm 0.00 in/hr0.0 mm/hr 0.00 in0.0 mm
03:55 AM 39.6°F4.2°C 36.3°F2.4°C 88% 1.2 mph W1.9 kmh W 2.2 mph3.5 kmh 30.35 in1027.8 mb 0.00 in0.0 mm 0.00 in/hr0.0 mm/hr 0.00 in0.0 mm
04:00 AM 39.7°F4.3°C 36.8°F2.7°C 89% 1.7 mph W2.7 kmh W 2.2 mph3.5 kmh 30.35 in1027.8 mb 0.00 in0.0 mm 0.00 in/hr0.0 mm/hr 0.00 in0.0 mm
04:05 AM 39.7°F4.3°C 36.8°F2.7°C 89% 1.4 mph W2.3 kmh W 2.2 mph3.5 kmh 30.35 in1027.8 mb 0.00 in0.0 mm 0.00 in/hr0.0 mm/hr 0.00 in0.0 mm
04:10 AM 39.9°F4.4°C 36.9°F2.7°C 89% 0.7 mph WSW1.1 kmh WSW 2.2 mph3.5 kmh 30.35 in1027.8 mb 0.00 in0.0 mm 0.00 in/hr0.0 mm/hr 0.00 in0.0 mm
04:15 AM 39.7°F4.3°C 36.8°F2.7°C 89% 0.6 mph WNW1.0 kmh WNW 1.6 mph2.6 kmh 30.35 in1027.8 mb 0.00 in0.0 mm 0.00 in/hr0.0 mm/hr 0.00 in0.0 mm
04:20 AM 39.7°F4.3°C 36.5°F2.5°C 88% 0.8 mph W1.3 kmh W 1.6 mph2.6 kmh 30.35 in1027.8 mb 0.00 in0.0 mm 0.00 in/hr0.0 mm/hr 0.00 in0.0 mm
04:25 AM 39.7°F4.3°C 36.5°F2.5°C 88% 0.7 mph S1.1 kmh S 2.2 mph3.5 kmh 30.36 in1028.1 mb 0.00 in0.0 mm 0.00 in/hr0.0 mm/hr 0.00 in0.0 mm
04:30 AM 39.6°F4.2°C 36.3°F2.4°C 88% 0.8 mph SE1.3 kmh SE 2.2 mph3.5 kmh 30.36 in1028.1 mb 0.00 in0.0 mm 0.00 in/hr0.0 mm/hr 0.00 in0.0 mm
04:35 AM 39.4°F4.1°C 36.1°F2.3°C 88% 0.5 mph S0.8 kmh S 1.6 mph2.6 kmh 30.35 in1027.8 mb 0.00 in0.0 mm 0.00 in/hr0.0 mm/hr 0.00 in0.0 mm
04:40 AM 39.4°F4.1°C 36.1°F2.3°C 88% 0.8 mph SSE1.3 kmh SSE 2.2 mph3.5 kmh 30.36 in1028.1 mb 0.00 in0.0 mm 0.00 in/hr0.0 mm/hr 0.00 in0.0 mm
04:45 AM 39.4°F4.1°C 36.1°F2.3°C 88% 1.0 mph SE1.6 kmh SE 2.2 mph3.5 kmh 30.36 in1028.1 mb 0.00 in0.0 mm 0.00 in/hr0.0 mm/hr 0.00 in0.0 mm
04:50 AM 39.2°F4.0°C 36.0°F2.2°C 88% 1.0 mph SE1.6 kmh SE 1.6 mph2.6 kmh 30.36 in1028.1 mb 0.00 in0.0 mm 0.00 in/hr0.0 mm/hr 0.00 in0.0 mm
04:55 AM 39.0°F3.9°C 35.8°F2.1°C 88% 0.7 mph SE1.1 kmh SE 1.6 mph2.6 kmh 30.36 in1028.1 mb 0.00 in0.0 mm 0.00 in/hr0.0 mm/hr 0.00 in0.0 mm
05:00 AM 38.8°F3.8°C 35.6°F2.0°C 88% 0.2 mph SE0.3 kmh SE 1.6 mph2.6 kmh 30.37 in1028.4 mb 0.00 in0.0 mm 0.00 in/hr0.0 mm/hr 0.00 in0.0 mm
05:05 AM 38.7°F3.7°C 35.4°F1.9°C 88% 0.3 mph SE0.5 kmh SE 0.7 mph1.1 kmh 30.37 in1028.4 mb 0.00 in0.0 mm 0.00 in/hr0.0 mm/hr 0.00 in0.0 mm
05:10 AM 38.8°F3.8°C 35.6°F2.0°C 88% 0.1 mph SE0.2 kmh SE 0.7 mph1.1 kmh 30.37 in1028.4 mb 0.00 in0.0 mm 0.00 in/hr0.0 mm/hr 0.00 in0.0 mm
05:15 AM 38.8°F3.8°C 35.6°F2.0°C 88% Calm Calm -- 30.37 in1028.4 mb 0.00 in0.0 mm 0.00 in/hr0.0 mm/hr 0.00 in0.0 mm
05:20 AM 38.7°F3.7°C 35.4°F1.9°C 88% 0.4 mph SE0.6 kmh SE 1.6 mph2.6 kmh 30.37 in1028.4 mb 0.00 in0.0 mm 0.00 in/hr0.0 mm/hr 0.00 in0.0 mm
05:25 AM 38.5°F3.6°C 35.2°F1.8°C 88% 1.0 mph SE1.6 kmh SE 1.6 mph2.6 kmh 30.37 in1028.4 mb 0.00 in0.0 mm 0.00 in/hr0.0 mm/hr 0.00 in0.0 mm
05:30 AM 38.5°F3.6°C 35.2°F1.8°C 88% 0.8 mph ESE1.3 kmh ESE 1.6 mph2.6 kmh 30.37 in1028.4 mb 0.00 in0.0 mm 0.00 in/hr0.0 mm/hr 0.00 in0.0 mm
05:35 AM 38.3°F3.5°C 35.1°F1.7°C 88% 0.2 mph E0.3 kmh E 1.6 mph2.6 kmh 30.37 in1028.4 mb 0.00 in0.0 mm 0.00 in/hr0.0 mm/hr 0.00 in0.0 mm
05:40 AM 38.3°F3.5°C 35.1°F1.7°C 88% Calm Calm -- 30.37 in1028.4 mb 0.00 in0.0 mm 0.00 in/hr0.0 mm/hr 0.00 in0.0 mm
05:45 AM 37.9°F3.3°C 34.7°F1.5°C 88% 0.1 mph E0.2 kmh E 0.7 mph1.1 kmh 30.37 in1028.4 mb 0.00 in0.0 mm 0.00 in/hr0.0 mm/hr 0.00 in0.0 mm
05:50 AM 38.1°F3.4°C 34.9°F1.6°C 88% 0.2 mph E0.3 kmh E 0.7 mph1.1 kmh 30.38 in1028.8 mb 0.00 in0.0 mm 0.00 in/hr0.0 mm/hr 0.00 in0.0 mm
05:55 AM 38.1°F3.4°C 34.9°F1.6°C 88% Calm Calm 0.7 mph1.1 kmh 30.38 in1028.8 mb 0.00 in0.0 mm 0.00 in/hr0.0 mm/hr 0.00 in0.0 mm
06:00 AM 37.9°F3.3°C 34.7°F1.5°C 88% Calm Calm -- 30.38 in1028.8 mb 0.00 in0.0 mm 0.00 in/hr0.0 mm/hr 0.00 in0.0 mm
06:05 AM 37.9°F3.3°C 34.7°F1.5°C 88% 0.1 mph E0.2 kmh E 0.7 mph1.1 kmh 30.38 in1028.8 mb 0.00 in0.0 mm 0.00 in/hr0.0 mm/hr 0.00 in0.0 mm
06:10 AM 37.9°F3.3°C 34.7°F1.5°C 88% 0.3 mph E0.5 kmh E 1.6 mph2.6 kmh 30.38 in1028.8 mb 0.00 in0.0 mm 0.00 in/hr0.0 mm/hr 0.00 in0.0 mm
06:15 AM 37.9°F3.3°C 34.7°F1.5°C 88% 0.2 mph E0.3 kmh E 1.6 mph2.6 kmh 30.38 in1028.8 mb 0.00 in0.0 mm 0.00 in/hr0.0 mm/hr 0.00 in0.0 mm
06:20 AM 37.9°F3.3°C 34.7°F1.5°C 88% Calm Calm -- 30.39 in1029.1 mb 0.00 in0.0 mm 0.00 in/hr0.0 mm/hr 0.00 in0.0 mm
06:25 AM 37.8°F3.2°C 34.5°F1.4°C 88% 0.2 mph E0.3 kmh E 1.6 mph2.6 kmh 30.39 in1029.1 mb 0.00 in0.0 mm 0.00 in/hr0.0 mm/hr 0.00 in0.0 mm
06:30 AM 37.6°F3.1°C 34.4°F1.3°C 88% 0.4 mph E0.6 kmh E 1.6 mph2.6 kmh 30.39 in1029.1 mb 0.00 in0.0 mm 0.00 in/hr0.0 mm/hr 0.00 in0.0 mm
06:35 AM 37.6°F3.1°C 34.6°F1.4°C 89% 0.4 mph E0.6 kmh E 1.6 mph2.6 kmh 30.39 in1029.1 mb 0.00 in0.0 mm 0.00 in/hr0.0 mm/hr 0.00 in0.0 mm
06:40 AM 37.6°F3.1°C 34.6°F1.4°C 89% 0.4 mph E0.6 kmh E 1.6 mph2.6 kmh 30.39 in1029.1 mb 0.00 in0.0 mm 0.00 in/hr0.0 mm/hr 0.00 in0.0 mm
06:45 AM 37.8°F3.2°C 34.8°F1.6°C 89% 0.9 mph E1.4 kmh E 1.6 mph2.6 kmh 30.39 in1029.1 mb 0.00 in0.0 mm 0.00 in/hr0.0 mm/hr 0.00 in0.0 mm
06:50 AM 37.6°F3.1°C 34.4°F1.3°C 88% 1.4 mph E2.3 kmh E 1.6 mph2.6 kmh 30.39 in1029.1 mb 0.00 in0.0 mm 0.00 in/hr0.0 mm/hr 0.00 in0.0 mm
06:55 AM 37.6°F3.1°C 34.4°F1.3°C 88% 1.5 mph E2.4 kmh E 2.2 mph3.5 kmh 30.39 in1029.1 mb 0.00 in0.0 mm 0.00 in/hr0.0 mm/hr 0.00 in0.0 mm
07:00 AM 37.6°F3.1°C 34.4°F1.3°C 88% 1.1 mph SE1.8 kmh SE 2.2 mph3.5 kmh 30.40 in1029.5 mb 0.00 in0.0 mm 0.00 in/hr0.0 mm/hr 0.00 in0.0 mm
07:05 AM 37.8°F3.2°C 34.8°F1.6°C 89% 0.4 mph S0.6 kmh S 2.2 mph3.5 kmh 30.40 in1029.5 mb 0.00 in0.0 mm 0.00 in/hr0.0 mm/hr 0.00 in0.0 mm
07:10 AM 37.8°F3.2°C 34.8°F1.6°C 89% Calm Calm -- 30.40 in1029.5 mb 0.00 in0.0 mm 0.00 in/hr0.0 mm/hr 0.00 in0.0 mm
07:15 AM 37.9°F3.3°C 35.0°F1.7°C 89% 0.1 mph S0.2 kmh S 0.7 mph1.1 kmh 30.40 in1029.5 mb 0.00 in0.0 mm 0.00 in/hr0.0 mm/hr 0.00 in0.0 mm
07:20 AM 38.3°F3.5°C 35.4°F1.9°C 89% 0.2 mph S0.3 kmh S 0.7 mph1.1 kmh 30.40 in1029.5 mb 0.00 in0.0 mm 0.00 in/hr0.0 mm/hr 0.00 in0.0 mm
07:25 AM 38.3°F3.5°C 35.4°F1.9°C 89% 0.1 mph S0.2 kmh S 0.7 mph1.1 kmh 30.41 in1029.8 mb 0.00 in0.0 mm 0.00 in/hr0.0 mm/hr 0.00 in0.0 mm
07:30 AM 38.8°F3.8°C 36.2°F2.3°C 90% 0.3 mph N0.5 kmh N 1.6 mph2.6 kmh 30.41 in1029.8 mb 0.00 in0.0 mm 0.00 in/hr0.0 mm/hr 0.00 in0.0 mm
07:35 AM 39.2°F4.0°C 36.5°F2.5°C 90% 0.3 mph N0.5 kmh N 1.6 mph2.6 kmh 30.41 in1029.8 mb 0.00 in0.0 mm 0.00 in/hr0.0 mm/hr 0.00 in0.0 mm
07:40 AM 39.4°F4.1°C 36.7°F2.6°C 90% Calm Calm -- 30.41 in1029.8 mb 0.00 in0.0 mm 0.00 in/hr0.0 mm/hr 0.00 in0.0 mm
07:45 AM 40.1°F4.5°C 37.4°F3.0°C 90% Calm Calm -- 30.41 in1029.8 mb 0.00 in0.0 mm 0.00 in/hr0.0 mm/hr 0.00 in0.0 mm
07:50 AM 40.6°F4.8°C 37.9°F3.3°C 90% Calm Calm -- 30.41 in1029.8 mb 0.00 in0.0 mm 0.00 in/hr0.0 mm/hr 0.00 in0.0 mm
07:55 AM 41.2°F5.1°C 38.5°F3.6°C 90% 0.2 mph SW0.3 kmh SW 0.7 mph1.1 kmh 30.42 in1030.1 mb 0.00 in0.0 mm 0.00 in/hr0.0 mm/hr 0.00 in0.0 mm
08:00 AM 41.5°F5.3°C 38.5°F3.6°C 89% 0.3 mph SW0.5 kmh SW 0.7 mph1.1 kmh 30.41 in1029.8 mb 0.00 in0.0 mm 0.00 in/hr0.0 mm/hr 0.00 in0.0 mm
08:05 AM 42.1°F5.6°C 39.1°F3.9°C 89% 0.5 mph W0.8 kmh W 1.6 mph2.6 kmh 30.41 in1029.8 mb 0.00 in0.0 mm 0.00 in/hr0.0 mm/hr 0.00 in0.0 mm
08:10 AM 42.4°F5.8°C 39.4°F4.1°C 89% 1.3 mph N2.1 kmh N 3.1 mph5.0 kmh 30.42 in1030.1 mb 0.00 in0.0 mm 0.00 in/hr0.0 mm/hr 0.00 in0.0 mm
08:15 AM 43.2°F6.2°C 39.9°F4.4°C 88% 1.7 mph NNE2.7 kmh NNE 3.1 mph5.0 kmh 30.42 in1030.1 mb 0.00 in0.0 mm 0.00 in/hr0.0 mm/hr 0.00 in0.0 mm
08:20 AM 44.1°F6.7°C 40.7°F4.8°C 88% 1.8 mph NE2.9 kmh NE 3.1 mph5.0 kmh 30.42 in1030.1 mb 0.00 in0.0 mm 0.00 in/hr0.0 mm/hr 0.00 in0.0 mm
08:25 AM 44.8°F7.1°C 41.2°F5.1°C 87% 2.4 mph E3.9 kmh E 3.8 mph6.1 kmh 30.42 in1030.1 mb 0.00 in0.0 mm 0.00 in/hr0.0 mm/hr 0.00 in0.0 mm
08:30 AM 45.7°F7.6°C 42.0°F5.6°C 87% 3.7 mph E6.0 kmh E 6.9 mph11.1 kmh 30.42 in1030.1 mb 0.00 in0.0 mm 0.00 in/hr0.0 mm/hr 0.00 in0.0 mm
08:35 AM 46.2°F7.9°C 42.3°F5.7°C 86% 5.2 mph E8.4 kmh E 7.6 mph12.2 kmh 30.42 in1030.1 mb 0.00 in0.0 mm 0.00 in/hr0.0 mm/hr 0.00 in0.0 mm
08:40 AM 47.1°F8.4°C 42.8°F6.0°C 85% 4.9 mph E7.9 kmh E 7.6 mph12.2 kmh 30.42 in1030.1 mb 0.00 in0.0 mm 0.00 in/hr0.0 mm/hr 0.00 in0.0 mm
08:45 AM 47.7°F8.7°C 43.1°F6.2°C 84% 5.3 mph E8.5 kmh E 7.6 mph12.2 kmh 30.43 in1030.5 mb 0.00 in0.0 mm 0.00 in/hr0.0 mm/hr 0.00 in0.0 mm
08:50 AM 48.0°F8.9°C 42.8°F6.0°C 82% 6.9 mph E11.1 kmh E 9.2 mph14.8 kmh 30.42 in1030.1 mb 0.00 in0.0 mm 0.00 in/hr0.0 mm/hr 0.00 in0.0 mm
08:55 AM 48.6°F9.2°C 43.3°F6.3°C 82% 7.1 mph E11.4 kmh E 9.2 mph14.8 kmh 30.43 in1030.5 mb 0.00 in0.0 mm 0.00 in/hr0.0 mm/hr 0.00 in0.0 mm
09:00 AM 49.1°F9.5°C 43.5°F6.4°C 81% 6.7 mph E10.8 kmh E 9.2 mph14.8 kmh 30.42 in1030.1 mb 0.00 in0.0 mm 0.00 in/hr0.0 mm/hr 0.00 in0.0 mm
09:05 AM 49.8°F9.9°C 43.9°F6.6°C 80% 6.9 mph E11.1 kmh E 9.2 mph14.8 kmh 30.42 in1030.1 mb 0.00 in0.0 mm 0.00 in/hr0.0 mm/hr 0.00 in0.0 mm
09:10 AM 50.2°F10.1°C 43.6°F6.4°C 78% 7.0 mph E11.3 kmh E 9.2 mph14.8 kmh 30.43 in1030.5 mb 0.00 in0.0 mm 0.00 in/hr0.0 mm/hr 0.00 in0.0 mm
09:15 AM 50.7°F10.4°C 44.1°F6.7°C 78% 6.2 mph E10.0 kmh E 9.2 mph14.8 kmh 30.43 in1030.5 mb 0.00 in0.0 mm 0.00 in/hr0.0 mm/hr 0.00 in0.0 mm
09:20 AM 51.3°F10.7°C 44.3°F6.8°C 77% 5.4 mph E8.7 kmh E 9.2 mph14.8 kmh 30.42 in1030.1 mb 0.00 in0.0 mm 0.00 in/hr0.0 mm/hr 0.00 in0.0 mm
09:25 AM 51.8°F11.0°C 44.5°F6.9°C 76% 5.7 mph E9.2 kmh E 7.6 mph12.2 kmh 30.43 in1030.5 mb 0.00 in0.0 mm 0.00 in/hr0.0 mm/hr 0.00 in0.0 mm
09:30 AM 52.0°F11.1°C 44.3°F6.8°C 75% 5.7 mph E9.2 kmh E 7.6 mph12.2 kmh 30.42 in1030.1 mb 0.00 in0.0 mm 0.00 in/hr0.0 mm/hr 0.00 in0.0 mm
09:35 AM 52.5°F11.4°C 44.8°F7.1°C 75% 6.2 mph ESE10.0 kmh ESE 8.3 mph13.4 kmh 30.43 in1030.5 mb 0.00 in0.0 mm 0.00 in/hr0.0 mm/hr 0.00 in0.0 mm
09:40 AM 52.9°F11.6°C 44.8°F7.1°C 74% 7.4 mph E11.9 kmh E 9.2 mph14.8 kmh 30.43 in1030.5 mb 0.00 in0.0 mm 0.00 in/hr0.0 mm/hr 0.00 in0.0 mm
09:45 AM 53.4°F11.9°C 45.0°F7.2°C 73% 7.7 mph E12.4 kmh E 9.2 mph14.8 kmh 30.43 in1030.5 mb 0.00 in0.0 mm 0.00 in/hr0.0 mm/hr 0.00 in0.0 mm
09:50 AM 53.6°F12.0°C 44.8°F7.1°C 72% 7.4 mph E11.9 kmh E 8.3 mph13.4 kmh 30.43 in1030.5 mb 0.00 in0.0 mm 0.00 in/hr0.0 mm/hr 0.00 in0.0 mm
09:55 AM 54.1°F12.3°C 45.3°F7.4°C 72% 7.3 mph ESE11.7 kmh ESE 8.3 mph13.4 kmh 30.43 in1030.5 mb 0.00 in0.0 mm 0.00 in/hr0.0 mm/hr 0.00 in0.0 mm
10:00 AM 54.7°F12.6°C 45.8°F7.7°C 72% 6.9 mph E11.1 kmh E 9.2 mph14.8 kmh 30.43 in1030.5 mb 0.00 in0.0 mm 0.00 in/hr0.0 mm/hr 0.00 in0.0 mm
10:05 AM 55.4°F13.0°C 46.5°F8.1°C 72% 6.4 mph ESE10.3 kmh ESE 9.2 mph14.8 kmh 30.43 in1030.5 mb 0.00 in0.0 mm 0.00 in/hr0.0 mm/hr 0.00 in0.0 mm
10:10 AM 55.6°F13.1°C 46.3°F7.9°C 71% 5.9 mph ESE9.5 kmh ESE 8.3 mph13.4 kmh 30.43 in1030.5 mb 0.00 in0.0 mm 0.00 in/hr0.0 mm/hr 0.00 in0.0 mm
10:15 AM 56.3°F13.5°C 46.7°F8.2°C 70% 6.0 mph E9.7 kmh E 8.3 mph13.4 kmh 30.43 in1030.5 mb 0.00 in0.0 mm 0.00 in/hr0.0 mm/hr 0.00 in0.0 mm
10:20 AM 56.7°F13.7°C 46.6°F8.1°C 69% 6.4 mph E10.3 kmh E 8.3 mph13.4 kmh 30.43 in1030.5 mb 0.00 in0.0 mm 0.00 in/hr0.0 mm/hr 0.00 in0.0 mm
10:25 AM 57.0°F13.9°C 47.0°F8.3°C 69% 6.3 mph ESE10.1 kmh ESE 8.3 mph13.4 kmh 30.43 in1030.5 mb 0.00 in0.0 mm 0.00 in/hr0.0 mm/hr 0.00 in0.0 mm
10:30 AM 57.2°F14.0°C 46.4°F8.0°C 67% 6.7 mph E10.8 kmh E 12.1 mph19.5 kmh 30.43 in1030.5 mb 0.00 in0.0 mm 0.00 in/hr0.0 mm/hr 0.00 in0.0 mm
10:35 AM 57.4°F14.1°C 46.9°F8.3°C 68% 7.2 mph E11.6 kmh E 12.1 mph19.5 kmh 30.43 in1030.5 mb 0.00 in0.0 mm 0.00 in/hr0.0 mm/hr 0.00 in0.0 mm
10:40 AM 58.3°F14.6°C 47.8°F8.8°C 68% 6.5 mph ESE10.5 kmh ESE 12.1 mph19.5 kmh 30.43 in1030.5 mb 0.00 in0.0 mm 0.00 in/hr0.0 mm/hr 0.00 in0.0 mm
10:45 AM 58.6°F14.8°C 47.7°F8.7°C 67% 5.6 mph ESE9.0 kmh ESE 7.6 mph12.2 kmh 30.42 in1030.1 mb 0.00 in0.0 mm 0.00 in/hr0.0 mm/hr 0.00 in0.0 mm
10:50 AM 59.0°F15.0°C 47.7°F8.7°C 66% 5.5 mph E8.9 kmh E 7.6 mph12.2 kmh 30.43 in1030.5 mb 0.00 in0.0 mm 0.00 in/hr0.0 mm/hr 0.00 in0.0 mm
10:55 AM 59.5°F15.3°C 48.2°F9.0°C 66% 5.5 mph ESE8.9 kmh ESE 8.3 mph13.4 kmh 30.42 in1030.1 mb 0.00 in0.0 mm 0.00 in/hr0.0 mm/hr 0.00 in0.0 mm
11:00 AM 59.2°F15.1°C 47.0°F8.3°C 64% 6.3 mph E10.1 kmh E 8.3 mph13.4 kmh 30.42 in1030.1 mb 0.00 in0.0 mm 0.00 in/hr0.0 mm/hr 0.00 in0.0 mm
11:05 AM 59.4°F15.2°C 47.2°F8.4°C 64% 6.2 mph E10.0 kmh E 8.3 mph13.4 kmh 30.42 in1030.1 mb 0.00 in0.0 mm 0.00 in/hr0.0 mm/hr 0.00 in0.0 mm
11:10 AM 59.7°F15.4°C 47.5°F8.6°C 64% 5.6 mph E9.0 kmh E 8.3 mph13.4 kmh 30.42 in1030.1 mb 0.00 in0.0 mm 0.00 in/hr0.0 mm/hr 0.00 in0.0 mm
11:15 AM 60.1°F15.6°C 47.5°F8.6°C 63% 4.7 mph ENE7.6 kmh ENE 8.3 mph13.4 kmh 30.42 in1030.1 mb 0.00 in0.0 mm 0.00 in/hr0.0 mm/hr 0.00 in0.0 mm
11:20 AM 60.1°F15.6°C 46.6°F8.1°C 61% 4.3 mph ENE6.9 kmh ENE 7.6 mph12.2 kmh 30.41 in1029.8 mb 0.00 in0.0 mm 0.00 in/hr0.0 mm/hr 0.00 in0.0 mm
11:25 AM 60.6°F15.9°C 48.0°F8.9°C 63% 5.0 mph ESE8.0 kmh ESE 7.6 mph12.2 kmh 30.42 in1030.1 mb 0.00 in0.0 mm 0.00 in/hr0.0 mm/hr 0.00 in0.0 mm
11:30 AM 61.9°F16.6°C 48.7°F9.3°C 62% 4.5 mph SE7.2 kmh SE 7.6 mph12.2 kmh 30.41 in1029.8 mb 0.00 in0.0 mm 0.00 in/hr0.0 mm/hr 0.00 in0.0 mm
11:35 AM 61.9°F16.6°C 48.3°F9.1°C 61% 4.0 mph ESE6.4 kmh ESE 7.6 mph12.2 kmh 30.41 in1029.8 mb 0.00 in0.0 mm 0.00 in/hr0.0 mm/hr 0.00 in0.0 mm
11:40 AM 62.8°F17.1°C 49.1°F9.5°C 61% 4.1 mph ESE6.6 kmh ESE 7.6 mph12.2 kmh 30.41 in1029.8 mb 0.00 in0.0 mm 0.00 in/hr0.0 mm/hr 0.00 in0.0 mm
11:45 AM 63.3°F17.4°C 48.8°F9.3°C 59% 4.3 mph E6.9 kmh E 6.9 mph11.1 kmh 30.41 in1029.8 mb 0.00 in0.0 mm 0.00 in/hr0.0 mm/hr 0.00 in0.0 mm
11:50 AM 63.3°F17.4°C 48.3°F9.1°C 58% 5.1 mph E8.2 kmh E 6.9 mph11.1 kmh 30.41 in1029.8 mb 0.00 in0.0 mm 0.00 in/hr0.0 mm/hr 0.00 in0.0 mm
11:55 AM 63.3°F17.4°C 48.3°F9.1°C 58% 4.4 mph E7.1 kmh E 6.9 mph11.1 kmh 30.40 in1029.5 mb 0.00 in0.0 mm 0.00 in/hr0.0 mm/hr 0.00 in0.0 mm
12:00 PM 64.0°F17.8°C 49.0°F9.4°C 58% 4.1 mph E6.6 kmh E 6.9 mph11.1 kmh 30.40 in1029.5 mb 0.00 in0.0 mm 0.00 in/hr0.0 mm/hr 0.00 in0.0 mm
12:05 PM 64.2°F17.9°C 48.7°F9.3°C 57% 4.5 mph E7.2 kmh E 6.9 mph11.1 kmh 30.40 in1029.5 mb 0.00 in0.0 mm 0.00 in/hr0.0 mm/hr 0.00 in0.0 mm
12:10 PM 64.8°F18.2°C 48.2°F9.0°C 55% 4.5 mph E7.2 kmh E 7.6 mph12.2 kmh 30.40 in1029.5 mb 0.00 in0.0 mm 0.00 in/hr0.0 mm/hr 0.00 in0.0 mm
12:15 PM 64.6°F18.1°C 48.1°F8.9°C 55% 5.2 mph E8.4 kmh E 7.6 mph12.2 kmh 30.40 in1029.5 mb 0.00 in0.0 mm 0.00 in/hr0.0 mm/hr 0.00 in0.0 mm
12:20 PM 64.2°F17.9°C 46.7°F8.2°C 53% 5.3 mph E8.5 kmh E 7.6 mph12.2 kmh 30.39 in1029.1 mb 0.00 in0.0 mm 0.00 in/hr0.0 mm/hr 0.00 in0.0 mm
12:25 PM 64.0°F17.8°C 47.1°F8.4°C 54% 4.5 mph NE7.2 kmh NE 6.0 mph9.7 kmh 30.39 in1029.1 mb 0.00 in0.0 mm 0.00 in/hr0.0 mm/hr 0.00 in0.0 mm
12:30 PM 64.4°F18.0°C 47.4°F8.6°C 54% 2.9 mph NNE4.7 kmh NNE 5.4 mph8.7 kmh 30.38 in1028.8 mb 0.00 in0.0 mm 0.00 in/hr0.0 mm/hr 0.00 in0.0 mm
12:35 PM 65.3°F18.5°C 48.2°F9.0°C 54% 3.9 mph E6.3 kmh E 6.9 mph11.1 kmh 30.38 in1028.8 mb 0.00 in0.0 mm 0.00 in/hr0.0 mm/hr 0.00 in0.0 mm
12:40 PM 65.7°F18.7°C 48.1°F8.9°C 53% 5.0 mph E8.0 kmh E 6.9 mph11.1 kmh 30.38 in1028.8 mb 0.00 in0.0 mm 0.00 in/hr0.0 mm/hr 0.00 in0.0 mm
12:45 PM 66.0°F18.9°C 48.4°F9.1°C 53% 4.1 mph ESE6.6 kmh ESE 6.9 mph11.1 kmh 30.38 in1028.8 mb 0.00 in0.0 mm 0.00 in/hr0.0 mm/hr 0.00 in0.0 mm
12:50 PM 66.6°F19.2°C 48.4°F9.1°C 52% 3.7 mph SE6.0 kmh SE 5.4 mph8.7 kmh 30.38 in1028.8 mb 0.00 in0.0 mm 0.00 in/hr0.0 mm/hr 0.00 in0.0 mm
12:55 PM 66.9°F19.4°C 48.2°F9.0°C 51% 3.4 mph SE5.5 kmh SE 6.0 mph9.7 kmh 30.38 in1028.8 mb 0.00 in0.0 mm 0.00 in/hr0.0 mm/hr 0.00 in0.0 mm
01:00 PM 67.1°F19.5°C 48.4°F9.1°C 51% 4.0 mph E6.4 kmh E 6.0 mph9.7 kmh 30.37 in1028.4 mb 0.00 in0.0 mm 0.00 in/hr0.0 mm/hr 0.00 in0.0 mm
01:05 PM 66.0°F18.9°C 46.3°F7.9°C 49% 5.4 mph ENE8.7 kmh ENE 9.2 mph14.8 kmh 30.37 in1028.4 mb 0.00 in0.0 mm 0.00 in/hr0.0 mm/hr 0.00 in0.0 mm
01:10 PM 65.8°F18.8°C 47.2°F8.4°C 51% 4.6 mph NE7.4 kmh NE 9.2 mph14.8 kmh 30.37 in1028.4 mb 0.00 in0.0 mm 0.00 in/hr0.0 mm/hr 0.00 in0.0 mm
01:15 PM 66.0°F18.9°C 46.9°F8.3°C 50% 3.3 mph N5.3 kmh N 6.0 mph9.7 kmh 30.36 in1028.1 mb 0.00 in0.0 mm 0.00 in/hr0.0 mm/hr 0.00 in0.0 mm
01:20 PM 66.2°F19.0°C 47.0°F8.3°C 50% 5.1 mph NE8.2 kmh NE 11.4 mph18.3 kmh 30.36 in1028.1 mb 0.00 in0.0 mm 0.00 in/hr0.0 mm/hr 0.00 in0.0 mm
01:25 PM 66.0°F18.9°C 46.9°F8.3°C 50% 5.6 mph NE9.0 kmh NE 11.4 mph18.3 kmh 30.36 in1028.1 mb 0.00 in0.0 mm 0.00 in/hr0.0 mm/hr 0.00 in0.0 mm
01:30 PM 66.0°F18.9°C 46.3°F7.9°C 49% 4.2 mph NNW6.8 kmh NNW 6.0 mph9.7 kmh 30.36 in1028.1 mb 0.00 in0.0 mm 0.00 in/hr0.0 mm/hr 0.00 in0.0 mm
01:35 PM 65.8°F18.8°C 46.2°F7.9°C 49% 3.9 mph NNW6.3 kmh NNW 6.0 mph9.7 kmh 30.36 in1028.1 mb 0.00 in0.0 mm 0.00 in/hr0.0 mm/hr 0.00 in0.0 mm
01:40 PM 66.2°F19.0°C 46.0°F7.8°C 48% 4.3 mph NNE6.9 kmh NNE 6.0 mph9.7 kmh 30.36 in1028.1 mb 0.00 in0.0 mm 0.00 in/hr0.0 mm/hr 0.00 in0.0 mm
01:45 PM 66.4°F19.1°C 46.1°F7.8°C 48% 3.9 mph NE6.3 kmh NE 6.0 mph9.7 kmh 30.35 in1027.8 mb 0.00 in0.0 mm 0.00 in/hr0.0 mm/hr 0.00 in0.0 mm
01:50 PM 66.4°F19.1°C 46.1°F7.8°C 48% 4.3 mph NNE6.9 kmh NNE 6.0 mph9.7 kmh 30.35 in1027.8 mb 0.00 in0.0 mm 0.00 in/hr0.0 mm/hr 0.00 in0.0 mm
01:55 PM 67.1°F19.5°C 46.2°F7.9°C 47% 4.5 mph NE7.2 kmh NE 6.0 mph9.7 kmh 30.35 in1027.8 mb 0.00 in0.0 mm 0.00 in/hr0.0 mm/hr 0.00 in0.0 mm
02:00 PM 67.1°F19.5°C 46.2°F7.9°C 47% 3.8 mph E6.1 kmh E 5.4 mph8.7 kmh 30.35 in1027.8 mb 0.00 in0.0 mm 0.00 in/hr0.0 mm/hr 0.00 in0.0 mm
02:05 PM 66.7°F19.3°C 45.3°F7.4°C 46% 3.3 mph NNE5.3 kmh NNE 5.4 mph8.7 kmh 30.35 in1027.8 mb 0.00 in0.0 mm 0.00 in/hr0.0 mm/hr 0.00 in0.0 mm
02:10 PM 66.9°F19.4°C 45.5°F7.5°C 46% 3.0 mph N4.8 kmh N 5.4 mph8.7 kmh 30.35 in1027.8 mb 0.00 in0.0 mm 0.00 in/hr0.0 mm/hr 0.00 in0.0 mm
02:15 PM 66.7°F19.3°C 44.7°F7.1°C 45% 3.8 mph N6.1 kmh N 5.4 mph8.7 kmh 30.34 in1027.4 mb 0.00 in0.0 mm 0.00 in/hr0.0 mm/hr 0.00 in0.0 mm
02:20 PM 66.9°F19.4°C 45.5°F7.5°C 46% 3.9 mph NW6.3 kmh NW 5.4 mph8.7 kmh 30.35 in1027.8 mb 0.00 in0.0 mm 0.00 in/hr0.0 mm/hr 0.00 in0.0 mm
02:25 PM 67.3°F19.6°C 45.8°F7.7°C 46% 3.2 mph NE5.1 kmh NE 4.5 mph7.2 kmh 30.34 in1027.4 mb 0.00 in0.0 mm 0.00 in/hr0.0 mm/hr 0.00 in0.0 mm
02:30 PM 68.0°F20.0°C 45.3°F7.4°C 44% 3.1 mph SSE5.0 kmh SSE 4.5 mph7.2 kmh 30.34 in1027.4 mb 0.00 in0.0 mm 0.00 in/hr0.0 mm/hr 0.00 in0.0 mm
02:35 PM 68.2°F20.1°C 45.5°F7.5°C 44% 2.8 mph S4.5 kmh S 5.4 mph8.7 kmh 30.34 in1027.4 mb 0.00 in0.0 mm 0.00 in/hr0.0 mm/hr 0.00 in0.0 mm
02:40 PM 67.1°F19.5°C 43.9°F6.6°C 43% 3.5 mph ENE5.6 kmh ENE 6.0 mph9.7 kmh 30.34 in1027.4 mb 0.00 in0.0 mm 0.00 in/hr0.0 mm/hr 0.00 in0.0 mm
02:45 PM 66.6°F19.2°C 44.0°F6.7°C 44% 4.3 mph NE6.9 kmh NE 6.0 mph9.7 kmh 30.34 in1027.4 mb 0.00 in0.0 mm 0.00 in/hr0.0 mm/hr 0.00 in0.0 mm
02:50 PM 66.2°F19.0°C 43.7°F6.5°C 44% 3.7 mph NE6.0 kmh NE 5.4 mph8.7 kmh 30.34 in1027.4 mb 0.00 in0.0 mm 0.00 in/hr0.0 mm/hr 0.00 in0.0 mm
02:55 PM 66.4°F19.1°C 43.8°F6.6°C 44% 2.8 mph E4.5 kmh E 4.5 mph7.2 kmh 30.34 in1027.4 mb 0.00 in0.0 mm 0.00 in/hr0.0 mm/hr 0.00 in0.0 mm
03:00 PM 66.9°F19.4°C 44.3°F6.8°C 44% 2.3 mph SE3.7 kmh SE 5.4 mph8.7 kmh 30.34 in1027.4 mb 0.00 in0.0 mm 0.00 in/hr0.0 mm/hr 0.00 in0.0 mm
03:05 PM 66.6°F19.2°C 44.0°F6.7°C 44% 3.9 mph E6.3 kmh E 6.0 mph9.7 kmh 30.34 in1027.4 mb 0.00 in0.0 mm 0.00 in/hr0.0 mm/hr 0.00 in0.0 mm
03:10 PM 66.9°F19.4°C 43.7°F6.5°C 43% 4.2 mph E6.8 kmh E 6.0 mph9.7 kmh 30.34 in1027.4 mb 0.00 in0.0 mm 0.00 in/hr0.0 mm/hr 0.00 in0.0 mm
03:15 PM 67.3°F19.6°C 44.6°F7.0°C 44% 3.0 mph E4.8 kmh E 5.4 mph8.7 kmh 30.34 in1027.4 mb 0.00 in0.0 mm 0.00 in/hr0.0 mm/hr 0.00 in0.0 mm
03:20 PM 66.7°F19.3°C 44.2°F6.8°C 44% 2.3 mph SE3.7 kmh SE 3.8 mph6.1 kmh 30.34 in1027.4 mb 0.00 in0.0 mm 0.00 in/hr0.0 mm/hr 0.00 in0.0 mm
03:25 PM 66.0°F18.9°C 44.1°F6.7°C 45% 2.5 mph E4.0 kmh E 3.8 mph6.1 kmh 30.34 in1027.4 mb 0.00 in0.0 mm 0.00 in/hr0.0 mm/hr 0.00 in0.0 mm
03:30 PM 66.2°F19.0°C 44.3°F6.8°C 45% 3.5 mph E5.6 kmh E 6.0 mph9.7 kmh 30.34 in1027.4 mb 0.00 in0.0 mm 0.00 in/hr0.0 mm/hr 0.00 in0.0 mm
03:35 PM 66.2°F19.0°C 44.3°F6.8°C 45% 4.1 mph E6.6 kmh E 6.0 mph9.7 kmh 30.34 in1027.4 mb 0.00 in0.0 mm 0.00 in/hr0.0 mm/hr 0.00 in0.0 mm
03:40 PM 66.2°F19.0°C 44.3°F6.8°C 45% 3.8 mph SE6.1 kmh SE 5.4 mph8.7 kmh 30.34 in1027.4 mb 0.00 in0.0 mm 0.00 in/hr0.0 mm/hr 0.00 in0.0 mm
03:45 PM 66.0°F18.9°C 44.1°F6.7°C 45% 2.5 mph SSE4.0 kmh SSE 4.5 mph7.2 kmh 30.34 in1027.4 mb 0.00 in0.0 mm 0.00 in/hr0.0 mm/hr 0.00 in0.0 mm
03:50 PM 65.7°F18.7°C 43.8°F6.6°C 45% 2.0 mph SE3.2 kmh SE 3.8 mph6.1 kmh 30.33 in1027.1 mb 0.00 in0.0 mm 0.00 in/hr0.0 mm/hr 0.00 in0.0 mm
03:55 PM 65.8°F18.8°C 43.9°F6.6°C 45% 2.1 mph SE3.4 kmh SE 3.1 mph5.0 kmh 30.33 in1027.1 mb 0.00 in0.0 mm 0.00 in/hr0.0 mm/hr 0.00 in0.0 mm
04:00 PM 65.7°F18.7°C 44.3°F6.8°C 46% 2.6 mph ESE4.2 kmh ESE 3.8 mph6.1 kmh 30.33 in1027.1 mb 0.00 in0.0 mm 0.00 in/hr0.0 mm/hr 0.00 in0.0 mm
04:05 PM 65.5°F18.6°C 44.2°F6.8°C 46% 2.7 mph ESE4.3 kmh ESE 3.8 mph6.1 kmh 30.33 in1027.1 mb 0.00 in0.0 mm 0.00 in/hr0.0 mm/hr 0.00 in0.0 mm
04:10 PM 65.5°F18.6°C 44.2°F6.8°C 46% 2.4 mph E3.9 kmh E 3.8 mph6.1 kmh 30.33 in1027.1 mb 0.00 in0.0 mm 0.00 in/hr0.0 mm/hr 0.00 in0.0 mm
04:15 PM 64.6°F18.1°C 43.4°F6.3°C 46% 3.3 mph E5.3 kmh E 6.0 mph9.7 kmh 30.34 in1027.4 mb 0.00 in0.0 mm 0.00 in/hr0.0 mm/hr 0.00 in0.0 mm
04:20 PM 63.9°F17.7°C 42.7°F5.9°C 46% 3.9 mph E6.3 kmh E 6.0 mph9.7 kmh 30.33 in1027.1 mb 0.00 in0.0 mm 0.00 in/hr0.0 mm/hr 0.00 in0.0 mm
04:25 PM 63.7°F17.6°C 43.1°F6.2°C 47% 3.2 mph ENE5.1 kmh ENE 4.5 mph7.2 kmh 30.33 in1027.1 mb 0.00 in0.0 mm 0.00 in/hr0.0 mm/hr 0.00 in0.0 mm
04:30 PM 64.0°F17.8°C 43.4°F6.3°C 47% 2.4 mph E3.9 kmh E 3.8 mph6.1 kmh 30.33 in1027.1 mb 0.00 in0.0 mm 0.00 in/hr0.0 mm/hr 0.00 in0.0 mm
04:35 PM 63.9°F17.7°C 42.7°F5.9°C 46% 3.0 mph NNE4.8 kmh NNE 4.5 mph7.2 kmh 30.33 in1027.1 mb 0.00 in0.0 mm 0.00 in/hr0.0 mm/hr 0.00 in0.0 mm
04:40 PM 63.0°F17.2°C 42.4°F5.8°C 47% 2.9 mph N4.7 kmh N 4.5 mph7.2 kmh 30.33 in1027.1 mb 0.00 in0.0 mm 0.00 in/hr0.0 mm/hr 0.00 in0.0 mm
04:45 PM 62.4°F16.9°C 41.9°F5.5°C 47% 1.5 mph NNW2.4 kmh NNW 4.5 mph7.2 kmh 30.33 in1027.1 mb 0.00 in0.0 mm 0.00 in/hr0.0 mm/hr 0.00 in0.0 mm
04:50 PM 62.4°F16.9°C 42.5°F5.8°C 48% 1.0 mph WSW1.6 kmh WSW 2.2 mph3.5 kmh 30.33 in1027.1 mb 0.00 in0.0 mm 0.00 in/hr0.0 mm/hr 0.00 in0.0 mm
04:55 PM 62.6°F17.0°C 42.7°F5.9°C 48% 1.6 mph ESE2.6 kmh ESE 3.1 mph5.0 kmh 30.33 in1027.1 mb 0.00 in0.0 mm 0.00 in/hr0.0 mm/hr 0.00 in0.0 mm
05:00 PM 62.2°F16.8°C 42.3°F5.7°C 48% 2.8 mph E4.5 kmh E 4.5 mph7.2 kmh 30.33 in1027.1 mb 0.00 in0.0 mm 0.00 in/hr0.0 mm/hr 0.00 in0.0 mm
05:05 PM 61.9°F16.6°C 42.0°F5.6°C 48% 3.4 mph E5.5 kmh E 4.5 mph7.2 kmh 30.34 in1027.4 mb 0.00 in0.0 mm 0.00 in/hr0.0 mm/hr 0.00 in0.0 mm
05:10 PM 61.5°F16.4°C 42.2°F5.7°C 49% 2.9 mph E4.7 kmh E 4.5 mph7.2 kmh 30.33 in1027.1 mb 0.00 in0.0 mm 0.00 in/hr0.0 mm/hr 0.00 in0.0 mm
05:15 PM 61.0°F16.1°C 42.2°F5.7°C 50% 1.6 mph SE2.6 kmh SE 3.1 mph5.0 kmh 30.33 in1027.1 mb 0.00 in0.0 mm 0.00 in/hr0.0 mm/hr 0.00 in0.0 mm
05:20 PM 61.0°F16.1°C 42.2°F5.7°C 50% 0.7 mph SE1.1 kmh SE 1.6 mph2.6 kmh 30.34 in1027.4 mb 0.00 in0.0 mm 0.00 in/hr0.0 mm/hr 0.00 in0.0 mm
05:25 PM 61.2°F16.2°C 42.4°F5.8°C 50% 0.6 mph SE1.0 kmh SE 1.6 mph2.6 kmh 30.34 in1027.4 mb 0.00 in0.0 mm 0.00 in/hr0.0 mm/hr 0.00 in0.0 mm
05:30 PM 61.0°F16.1°C 42.7°F5.9°C 51% 0.8 mph SE1.3 kmh SE 1.6 mph2.6 kmh 30.34 in1027.4 mb 0.00 in0.0 mm 0.00 in/hr0.0 mm/hr 0.00 in0.0 mm
05:35 PM 60.6°F15.9°C 42.9°F6.1°C 52% 0.8 mph SE1.3 kmh SE 1.6 mph2.6 kmh 30.35 in1027.8 mb 0.00 in0.0 mm 0.00 in/hr0.0 mm/hr 0.00 in0.0 mm
05:40 PM 60.3°F15.7°C 43.1°F6.2°C 53% 0.6 mph SE1.0 kmh SE 1.6 mph2.6 kmh 30.35 in1027.8 mb 0.00 in0.0 mm 0.00 in/hr0.0 mm/hr 0.00 in0.0 mm
05:45 PM 59.7°F15.4°C 43.1°F6.2°C 54% 0.2 mph SE0.3 kmh SE 0.7 mph1.1 kmh 30.35 in1027.8 mb 0.00 in0.0 mm 0.00 in/hr0.0 mm/hr 0.00 in0.0 mm
05:50 PM 59.4°F15.2°C 42.7°F5.9°C 54% Calm Calm -- 30.35 in1027.8 mb 0.00 in0.0 mm 0.00 in/hr0.0 mm/hr 0.00 in0.0 mm
05:55 PM 58.8°F14.9°C 42.7°F5.9°C 55% Calm Calm -- 30.35 in1027.8 mb 0.00 in0.0 mm 0.00 in/hr0.0 mm/hr 0.00 in0.0 mm
06:00 PM 58.3°F14.6°C 42.7°F5.9°C 56% 0.2 mph SE0.3 kmh SE 1.6 mph2.6 kmh 30.35 in1027.8 mb 0.00 in0.0 mm 0.00 in/hr0.0 mm/hr 0.00 in0.0 mm
06:05 PM 57.7°F14.3°C 42.6°F5.9°C 57% 0.7 mph SW1.1 kmh SW 1.6 mph2.6 kmh 30.35 in1027.8 mb 0.00 in0.0 mm 0.00 in/hr0.0 mm/hr 0.00 in0.0 mm
06:10 PM 57.6°F14.2°C 42.9°F6.1°C 58% 0.5 mph SW0.8 kmh SW 1.6 mph2.6 kmh 30.35 in1027.8 mb 0.00 in0.0 mm 0.00 in/hr0.0 mm/hr 0.00 in0.0 mm
06:15 PM 57.2°F14.0°C 43.0°F6.1°C 59% 0.1 mph SW0.2 kmh SW 1.6 mph2.6 kmh 30.36 in1028.1 mb 0.00 in0.0 mm 0.00 in/hr0.0 mm/hr 0.00 in0.0 mm
06:35 PM 55.2°F12.9°C 42.9°F6.1°C 63% 1.3 mph S2.1 kmh S 2.2 mph3.5 kmh 30.37 in1028.4 mb 0.00 in0.0 mm 0.00 in/hr0.0 mm/hr 0.00 in0.0 mm
06:40 PM 55.0°F12.8°C 42.7°F5.9°C 63% 1.7 mph S2.7 kmh S 2.2 mph3.5 kmh 30.37 in1028.4 mb 0.00 in0.0 mm 0.00 in/hr0.0 mm/hr 0.00 in0.0 mm
06:45 PM 54.9°F12.7°C 42.9°F6.1°C 64% 1.4 mph S2.3 kmh S 2.2 mph3.5 kmh 30.36 in1028.1 mb 0.00 in0.0 mm 0.00 in/hr0.0 mm/hr 0.00 in0.0 mm
06:50 PM 54.5°F12.5°C 42.6°F5.9°C 64% 1.0 mph S1.6 kmh S 1.6 mph2.6 kmh 30.36 in1028.1 mb 0.00 in0.0 mm 0.00 in/hr0.0 mm/hr 0.00 in0.0 mm
06:55 PM 54.1°F12.3°C 42.2°F5.7°C 64% 0.8 mph S1.3 kmh S 1.6 mph2.6 kmh 30.37 in1028.4 mb 0.00 in0.0 mm 0.00 in/hr0.0 mm/hr 0.00 in0.0 mm
07:00 PM 53.4°F11.9°C 42.0°F5.6°C 65% 1.3 mph S2.1 kmh S 1.6 mph2.6 kmh 30.36 in1028.1 mb 0.00 in0.0 mm 0.00 in/hr0.0 mm/hr 0.00 in0.0 mm
07:05 PM 53.2°F11.8°C 42.2°F5.7°C 66% 1.4 mph S2.3 kmh S 1.6 mph2.6 kmh 30.37 in1028.4 mb 0.00 in0.0 mm 0.00 in/hr0.0 mm/hr 0.00 in0.0 mm
07:10 PM 52.9°F11.6°C 41.8°F5.4°C 66% 1.4 mph S2.3 kmh S 1.6 mph2.6 kmh 30.36 in1028.1 mb 0.00 in0.0 mm 0.00 in/hr0.0 mm/hr 0.00 in0.0 mm
07:15 PM 52.9°F11.6°C 41.8°F5.4°C 66% 1.7 mph S2.7 kmh S 2.2 mph3.5 kmh 30.37 in1028.4 mb 0.00 in0.0 mm 0.00 in/hr0.0 mm/hr 0.00 in0.0 mm
07:20 PM 52.5°F11.4°C 41.5°F5.3°C 66% 1.5 mph S2.4 kmh S 2.2 mph3.5 kmh 30.38 in1028.8 mb 0.00 in0.0 mm 0.00 in/hr0.0 mm/hr 0.00 in0.0 mm
07:25 PM 52.2°F11.2°C 41.5°F5.3°C 67% 1.1 mph S1.8 kmh S 1.6 mph2.6 kmh 30.37 in1028.4 mb 0.00 in0.0 mm 0.00 in/hr0.0 mm/hr 0.00 in0.0 mm
07:30 PM 51.8°F11.0°C 41.2°F5.1°C 67% 0.8 mph S1.3 kmh S 1.6 mph2.6 kmh 30.38 in1028.8 mb 0.00 in0.0 mm 0.00 in/hr0.0 mm/hr 0.00 in0.0 mm
07:35 PM 51.6°F10.9°C 41.4°F5.2°C 68% 0.4 mph S0.6 kmh S 0.7 mph1.1 kmh 30.38 in1028.8 mb 0.00 in0.0 mm 0.00 in/hr0.0 mm/hr 0.00 in0.0 mm
07:40 PM 51.1°F10.6°C 40.9°F4.9°C 68% 0.1 mph S0.2 kmh S 0.7 mph1.1 kmh 30.38 in1028.8 mb 0.00 in0.0 mm 0.00 in/hr0.0 mm/hr 0.00 in0.0 mm
07:45 PM 50.7°F10.4°C 40.9°F4.9°C 69% Calm Calm 0.7 mph1.1 kmh 30.38 in1028.8 mb 0.00 in0.0 mm 0.00 in/hr0.0 mm/hr 0.00 in0.0 mm
07:50 PM 50.5°F10.3°C 40.8°F4.9°C 69% 0.1 mph S0.2 kmh S 0.7 mph1.1 kmh 30.38 in1028.8 mb 0.00 in0.0 mm 0.00 in/hr0.0 mm/hr 0.00 in0.0 mm
07:55 PM 50.5°F10.3°C 40.8°F4.9°C 69% 0.1 mph S0.2 kmh S 0.7 mph1.1 kmh 30.38 in1028.8 mb 0.00 in0.0 mm 0.00 in/hr0.0 mm/hr 0.00 in0.0 mm
08:00 PM 50.4°F10.2°C 40.6°F4.8°C 69% 0.9 mph SSE1.4 kmh SSE 2.2 mph3.5 kmh 30.38 in1028.8 mb 0.00 in0.0 mm 0.00 in/hr0.0 mm/hr 0.00 in0.0 mm
08:05 PM 50.4°F10.2°C 40.6°F4.8°C 69% 1.6 mph S2.6 kmh S 2.2 mph3.5 kmh 30.38 in1028.8 mb 0.00 in0.0 mm 0.00 in/hr0.0 mm/hr 0.00 in0.0 mm
08:10 PM 50.0°F10.0°C 40.2°F4.6°C 69% 1.6 mph S2.6 kmh S 2.2 mph3.5 kmh 30.39 in1029.1 mb 0.00 in0.0 mm 0.00 in/hr0.0 mm/hr 0.00 in0.0 mm
08:15 PM 49.8°F9.9°C 40.1°F4.5°C 69% 1.7 mph S2.7 kmh S 2.2 mph3.5 kmh 30.39 in1029.1 mb 0.00 in0.0 mm 0.00 in/hr0.0 mm/hr 0.00 in0.0 mm
08:20 PM 49.3°F9.6°C 39.9°F4.4°C 70% 1.8 mph S2.9 kmh S 2.2 mph3.5 kmh 30.39 in1029.1 mb 0.00 in0.0 mm 0.00 in/hr0.0 mm/hr 0.00 in0.0 mm
08:25 PM 49.1°F9.5°C 40.1°F4.5°C 71% 1.6 mph S2.6 kmh S 2.2 mph3.5 kmh 30.39 in1029.1 mb 0.00 in0.0 mm 0.00 in/hr0.0 mm/hr 0.00 in0.0 mm
08:30 PM 48.9°F9.4°C 39.9°F4.4°C 71% 1.4 mph S2.3 kmh S 1.6 mph2.6 kmh 30.39 in1029.1 mb 0.00 in0.0 mm 0.00 in/hr0.0 mm/hr 0.00 in0.0 mm
08:35 PM 48.9°F9.4°C 39.9°F4.4°C 71% 1.5 mph S2.4 kmh S 1.6 mph2.6 kmh 30.40 in1029.5 mb 0.00 in0.0 mm 0.00 in/hr0.0 mm/hr 0.00 in0.0 mm
08:40 PM 48.9°F9.4°C 39.9°F4.4°C 71% 1.1 mph S1.8 kmh S 1.6 mph2.6 kmh 30.40 in1029.5 mb 0.00 in0.0 mm 0.00 in/hr0.0 mm/hr 0.00 in0.0 mm
08:45 PM 48.9°F9.4°C 39.9°F4.4°C 71% 0.5 mph S0.8 kmh S 1.6 mph2.6 kmh 30.40 in1029.5 mb 0.00 in0.0 mm 0.00 in/hr0.0 mm/hr 0.00 in0.0 mm
08:50 PM 48.7°F9.3°C 39.8°F4.3°C 71% 0.6 mph S1.0 kmh S 1.6 mph2.6 kmh 30.40 in1029.5 mb 0.00 in0.0 mm 0.00 in/hr0.0 mm/hr 0.00 in0.0 mm
08:55 PM 48.6°F9.2°C 39.6°F4.2°C 71% 1.2 mph S1.9 kmh S 1.6 mph2.6 kmh 30.40 in1029.5 mb 0.00 in0.0 mm 0.00 in/hr0.0 mm/hr 0.00 in0.0 mm
09:00 PM 48.6°F9.2°C 40.0°F4.4°C 72% 1.6 mph S2.6 kmh S 2.2 mph3.5 kmh 30.40 in1029.5 mb 0.00 in0.0 mm 0.00 in/hr0.0 mm/hr 0.00 in0.0 mm
09:05 PM 48.6°F9.2°C 40.0°F4.4°C 72% 1.4 mph S2.3 kmh S 2.2 mph3.5 kmh 30.40 in1029.5 mb 0.00 in0.0 mm 0.00 in/hr0.0 mm/hr 0.00 in0.0 mm
09:10 PM 48.4°F9.1°C 39.8°F4.3°C 72% 0.7 mph S1.1 kmh S 1.6 mph2.6 kmh 30.40 in1029.5 mb 0.00 in0.0 mm 0.00 in/hr0.0 mm/hr 0.00 in0.0 mm
09:15 PM 48.0°F8.9°C 39.4°F4.1°C 72% 0.4 mph S0.6 kmh S 1.6 mph2.6 kmh 30.40 in1029.5 mb 0.00 in0.0 mm 0.00 in/hr0.0 mm/hr 0.00 in0.0 mm
09:20 PM 48.0°F8.9°C 39.4°F4.1°C 72% 0.5 mph SE0.8 kmh SE 1.6 mph2.6 kmh 30.41 in1029.8 mb 0.00 in0.0 mm 0.00 in/hr0.0 mm/hr 0.00 in0.0 mm
09:25 PM 48.0°F8.9°C 39.8°F4.3°C 73% 0.7 mph E1.1 kmh E 0.7 mph1.1 kmh 30.41 in1029.8 mb 0.00 in0.0 mm 0.00 in/hr0.0 mm/hr 0.00 in0.0 mm
09:30 PM 48.0°F8.9°C 39.8°F4.3°C 73% 0.4 mph E0.6 kmh E 0.7 mph1.1 kmh 30.41 in1029.8 mb 0.00 in0.0 mm 0.00 in/hr0.0 mm/hr 0.00 in0.0 mm
09:35 PM 47.7°F8.7°C 39.4°F4.1°C 73% 0.2 mph S0.3 kmh S 0.7 mph1.1 kmh 30.41 in1029.8 mb 0.00 in0.0 mm 0.00 in/hr0.0 mm/hr 0.00 in0.0 mm
09:40 PM 47.5°F8.6°C 39.6°F4.2°C 74% 0.3 mph S0.5 kmh S 0.7 mph1.1 kmh 30.41 in1029.8 mb 0.00 in0.0 mm 0.00 in/hr0.0 mm/hr 0.00 in0.0 mm
09:45 PM 47.7°F8.7°C 39.8°F4.3°C 74% 0.2 mph S0.3 kmh S 0.7 mph1.1 kmh 30.41 in1029.8 mb 0.00 in0.0 mm 0.00 in/hr0.0 mm/hr 0.00 in0.0 mm
09:50 PM 47.8°F8.8°C 40.0°F4.4°C 74% 0.2 mph S0.3 kmh S 1.6 mph2.6 kmh 30.41 in1029.8 mb 0.00 in0.0 mm 0.00 in/hr0.0 mm/hr 0.00 in0.0 mm
09:55 PM 47.7°F8.7°C 39.8°F4.3°C 74% 0.6 mph S1.0 kmh S 1.6 mph2.6 kmh 30.41 in1029.8 mb 0.00 in0.0 mm 0.00 in/hr0.0 mm/hr 0.00 in0.0 mm
10:00 PM 47.7°F8.7°C 39.8°F4.3°C 74% 0.7 mph S1.1 kmh S 1.6 mph2.6 kmh 30.41 in1029.8 mb 0.00 in0.0 mm 0.00 in/hr0.0 mm/hr 0.00 in0.0 mm
10:05 PM 47.8°F8.8°C 40.3°F4.6°C 75% 0.8 mph S1.3 kmh S 1.6 mph2.6 kmh 30.41 in1029.8 mb 0.00 in0.0 mm 0.00 in/hr0.0 mm/hr 0.00 in0.0 mm
10:10 PM 47.7°F8.7°C 40.1°F4.5°C 75% 0.5 mph S0.8 kmh S 1.6 mph2.6 kmh 30.41 in1029.8 mb 0.00 in0.0 mm 0.00 in/hr0.0 mm/hr 0.00 in0.0 mm
10:15 PM 47.7°F8.7°C 40.1°F4.5°C 75% 0.3 mph SSW0.5 kmh SSW 0.7 mph1.1 kmh 30.41 in1029.8 mb 0.00 in0.0 mm 0.00 in/hr0.0 mm/hr 0.00 in0.0 mm
10:20 PM 47.8°F8.8°C 40.3°F4.6°C 75% 0.6 mph S1.0 kmh S 1.6 mph2.6 kmh 30.41 in1029.8 mb 0.00 in0.0 mm 0.00 in/hr0.0 mm/hr 0.00 in0.0 mm
10:25 PM 47.7°F8.7°C 40.1°F4.5°C 75% 1.0 mph S1.6 kmh S 1.6 mph2.6 kmh 30.41 in1029.8 mb 0.00 in0.0 mm 0.00 in/hr0.0 mm/hr 0.00 in0.0 mm
10:30 PM 47.7°F8.7°C 40.1°F4.5°C 75% 0.9 mph S1.4 kmh S 1.6 mph2.6 kmh 30.41 in1029.8 mb 0.00 in0.0 mm 0.00 in/hr0.0 mm/hr 0.00 in0.0 mm
10:35 PM 47.7°F8.7°C 40.1°F4.5°C 75% 1.0 mph S1.6 kmh S 1.6 mph2.6 kmh 30.41 in1029.8 mb 0.00 in0.0 mm 0.00 in/hr0.0 mm/hr 0.00 in0.0 mm
10:40 PM 47.7°F8.7°C 40.5°F4.7°C 76% 1.2 mph SSE1.9 kmh SSE 1.6 mph2.6 kmh 30.41 in1029.8 mb 0.00 in0.0 mm 0.00 in/hr0.0 mm/hr 0.00 in0.0 mm
10:45 PM 47.7°F8.7°C 40.5°F4.7°C 76% 1.0 mph SE1.6 kmh SE 1.6 mph2.6 kmh 30.41 in1029.8 mb 0.00 in0.0 mm 0.00 in/hr0.0 mm/hr 0.00 in0.0 mm
10:50 PM 47.7°F8.7°C 40.5°F4.7°C 76% 1.4 mph SSE2.3 kmh SSE 2.2 mph3.5 kmh 30.41 in1029.8 mb 0.00 in0.0 mm 0.00 in/hr0.0 mm/hr 0.00 in0.0 mm
10:55 PM 47.7°F8.7°C 40.5°F4.7°C 76% 2.2 mph S3.5 kmh S 3.1 mph5.0 kmh 30.41 in1029.8 mb 0.00 in0.0 mm 0.00 in/hr0.0 mm/hr 0.00 in0.0 mm
11:00 PM 47.3°F8.5°C 40.1°F4.5°C 76% 2.2 mph S3.5 kmh S 3.1 mph5.0 kmh 30.41 in1029.8 mb 0.00 in0.0 mm 0.00 in/hr0.0 mm/hr 0.00 in0.0 mm
11:05 PM 47.5°F8.6°C 40.6°F4.8°C 77% 1.7 mph S2.7 kmh S 2.2 mph3.5 kmh 30.41 in1029.8 mb 0.00 in0.0 mm 0.00 in/hr0.0 mm/hr 0.00 in0.0 mm
11:10 PM 47.5°F8.6°C 40.6°F4.8°C 77% 1.8 mph SE2.9 kmh SE 2.2 mph3.5 kmh 30.41 in1029.8 mb 0.00 in0.0 mm 0.00 in/hr0.0 mm/hr 0.00 in0.0 mm
11:15 PM 47.7°F8.7°C 40.8°F4.9°C 77% 1.6 mph SE2.6 kmh SE 2.2 mph3.5 kmh 30.41 in1029.8 mb 0.00 in0.0 mm 0.00 in/hr0.0 mm/hr 0.00 in0.0 mm
11:20 PM 47.7°F8.7°C 40.8°F4.9°C 77% 0.6 mph SE1.0 kmh SE 1.6 mph2.6 kmh 30.41 in1029.8 mb 0.00 in0.0 mm 0.00 in/hr0.0 mm/hr 0.00 in0.0 mm
11:25 PM 47.8°F8.8°C 41.0°F5.0°C 77% 0.2 mph S0.3 kmh S 1.6 mph2.6 kmh 30.41 in1029.8 mb 0.00 in0.0 mm 0.00 in/hr0.0 mm/hr 0.00 in0.0 mm
11:30 PM 47.5°F8.6°C 40.6°F4.8°C 77% 0.2 mph S0.3 kmh S 1.6 mph2.6 kmh 30.41 in1029.8 mb 0.00 in0.0 mm 0.00 in/hr0.0 mm/hr 0.00 in0.0 mm
11:35 PM 47.5°F8.6°C 40.6°F4.8°C 77% 0.1 mph S0.2 kmh S 0.7 mph1.1 kmh 30.41 in1029.8 mb 0.00 in0.0 mm 0.00 in/hr0.0 mm/hr 0.00 in0.0 mm
11:40 PM 47.7°F8.7°C 40.8°F4.9°C 77% 0.3 mph S0.5 kmh S 1.6 mph2.6 kmh 30.42 in1030.1 mb 0.00 in0.0 mm 0.00 in/hr0.0 mm/hr 0.00 in0.0 mm
11:45 PM 47.7°F8.7°C 40.8°F4.9°C 77% 1.1 mph SSE1.8 kmh SSE 1.6 mph2.6 kmh 30.41 in1029.8 mb 0.00 in0.0 mm 0.00 in/hr0.0 mm/hr 0.00 in0.0 mm
11:50 PM 47.7°F8.7°C 40.8°F4.9°C 77% 1.5 mph SE2.4 kmh SE 1.6 mph2.6 kmh 30.42 in1030.1 mb 0.00 in0.0 mm 0.00 in/hr0.0 mm/hr 0.00 in0.0 mm
11:55 PM 47.3°F8.5°C 40.5°F4.7°C 77% 1.4 mph SE2.3 kmh SE 2.2 mph3.5 kmh 30.41 in1029.8 mb 0.00 in0.0 mm 0.00 in/hr0.0 mm/hr 0.00 in0.0 mm